Time;durP1;ratioP1;P1;durP2;ratioP2;P2;SDS_P1;SDS_P2;PMS_P1;PMS_P2;Temp;Humidity;BMP_temperature;BMP_pressure;BME280_temperature;BME280_humidity;BME280_pressure;Samples;Min_cycle;Max_cycle;Signal;HPM_P1;HPM_P2
2022/01/04 00:02:20;;;;;;;23.52;3.90;;;;;;;;;;5018398;28;20149;-59
2022/01/04 00:04:45;;;;;;;24.85;3.47;;;;;;;;;;5018201;28;20443;-59
2022/01/04 00:07:17;;;;;;;20.13;3.95;;;;;;;;;;5002419;28;20103;-59
2022/01/04 00:09:45;;;;;;;14.15;2.60;;;;;;;;;;5019169;28;20942;-59
2022/01/04 00:15:12;;;;;;;17.27;3.33;;;;;;;;;;4966998;28;20045;-59
2022/01/04 00:17:39;;;;;;;33.70;4.65;;;;;;;;;;5003601;28;20535;-59
2022/01/04 00:20:08;;;;;;;15.77;3.90;;;;;;;;;;5017860;28;20044;-59
2022/01/04 00:22:33;;;;;;;21.55;3.78;;;;;;;;;;5019561;28;20045;-58
2022/01/04 00:25:02;;;;;;;22.23;3.60;;;;;;;;;;5018698;28;20319;-58
2022/01/04 00:27:28;;;;;;;29.27;4.32;;;;;;;;;;5000640;28;20076;-58
2022/01/04 00:29:53;;;;;;;22.52;4.03;;;;;;;;;;5004822;28;20680;-60
2022/01/04 00:32:18;;;;;;;12.32;2.80;;;;;;;;;;5018264;28;20033;-58
2022/01/04 00:34:44;;;;;;;30.30;4.78;;;;;;;;;;5005450;28;20166;-59
2022/01/04 00:37:12;;;;;;;27.48;5.10;;;;;;;;;;5018696;28;20089;-59
2022/01/04 00:39:37;;;;;;;27.98;6.10;;;;;;;;;;5018393;28;20037;-59
2022/01/04 00:42:05;;;;;;;23.80;4.20;;;;;;;;;;5003035;28;20037;-59
2022/01/04 00:44:36;;;;;;;21.10;4.80;;;;;;;;;;4998173;28;20822;-58
2022/01/04 00:47:05;;;;;;;15.63;5.65;;;;;;;;;;5018600;28;20186;-58
2022/01/04 00:49:30;;;;;;;34.42;6.05;;;;;;;;;;4990270;28;20036;-59
2022/01/04 00:52:00;;;;;;;35.35;5.32;;;;;;;;;;4989144;28;20034;-58
2022/01/04 00:54:29;;;;;;;35.90;4.38;;;;;;;;;;4998908;28;20061;-59
2022/01/04 00:56:54;;;;;;;39.40;4.68;;;;;;;;;;5008086;28;20490;-59
2022/01/04 00:59:20;;;;;;;16.42;3.47;;;;;;;;;;5018091;28;20471;-59
2022/01/04 01:01:48;;;;;;;34.00;4.63;;;;;;;;;;5018661;28;20041;-59
2022/01/04 01:04:15;;;;;;;22.20;4.47;;;;;;;;;;5018004;28;20099;-59
2022/01/04 01:06:41;;;;;;;24.58;5.55;;;;;;;;;;5003535;28;20041;-59
2022/01/04 01:09:07;;;;;;;16.92;4.65;;;;;;;;;;4990456;28;20041;-59
2022/01/04 01:11:35;;;;;;;19.30;4.63;;;;;;;;;;5001246;28;20508;-59
2022/01/04 01:14:05;;;;;;;36.70;5.82;;;;;;;;;;5017882;28;20354;-59
2022/01/04 01:16:30;;;;;;;26.45;4.88;;;;;;;;;;5014857;28;20037;-59
2022/01/04 01:18:56;;;;;;;24.48;4.57;;;;;;;;;;4999382;28;20033;-59
2022/01/04 01:21:24;;;;;;;26.52;5.13;;;;;;;;;;4981808;28;20064;-59
2022/01/04 01:23:50;;;;;;;27.13;5.20;;;;;;;;;;5015750;28;20040;-60
2022/01/04 01:26:17;;;;;;;25.52;5.70;;;;;;;;;;5006294;28;20160;-59
2022/01/04 01:29:07;;;;;;;24.83;5.18;;;;;;;;;;4987461;28;20021;-59
2022/01/04 01:31:32;;;;;;;27.00;4.65;;;;;;;;;;5017100;28;20033;-60
2022/01/04 01:34:00;;;;;;;28.65;6.05;;;;;;;;;;5013219;28;20029;-59
2022/01/04 01:36:27;;;;;;;27.58;4.38;;;;;;;;;;5000594;28;20047;-59
2022/01/04 01:38:54;;;;;;;17.40;5.05;;;;;;;;;;4997966;28;21009;-60
2022/01/04 01:41:22;;;;;;;23.83;6.00;;;;;;;;;;5002059;28;20037;-60
2022/01/04 01:43:52;;;;;;;22.23;5.97;;;;;;;;;;5000557;28;20499;-60
2022/01/04 01:46:17;;;;;;;30.10;5.43;;;;;;;;;;5001975;28;20111;-59
2022/01/04 01:48:47;;;;;;;20.63;4.55;;;;;;;;;;5017854;28;20059;-59
2022/01/04 01:51:16;;;;;;;30.25;5.32;;;;;;;;;;5017568;28;20029;-59
2022/01/04 01:53:41;;;;;;;18.92;4.57;;;;;;;;;;4986446;28;20076;-59
2022/01/04 01:56:09;;;;;;;22.30;5.60;;;;;;;;;;4999938;28;20033;-60
2022/01/04 01:58:35;;;;;;;28.58;5.65;;;;;;;;;;4999988;28;20241;-60
2022/01/04 02:01:09;;;;;;;20.10;4.15;;;;;;;;;;4998316;28;20032;-60
2022/01/04 02:03:38;;;;;;;24.13;4.97;;;;;;;;;;5017197;28;20057;-59
2022/01/04 02:06:06;;;;;;;22.83;4.35;;;;;;;;;;4996797;28;20052;-60
2022/01/04 02:08:35;;;;;;;25.92;5.40;;;;;;;;;;5016619;28;20095;-59
2022/01/04 02:11:04;;;;;;;25.55;4.72;;;;;;;;;;5015373;28;20051;-59
2022/01/04 02:13:35;;;;;;;19.92;3.97;;;;;;;;;;5015728;28;20029;-59
2022/01/04 02:16:02;;;;;;;41.95;5.78;;;;;;;;;;4999235;28;20033;-59
2022/01/04 02:18:32;;;;;;;29.02;4.90;;;;;;;;;;5002305;28;20029;-59
2022/01/04 02:20:58;;;;;;;20.05;5.28;;;;;;;;;;4997116;28;22372;-59
2022/01/04 02:23:26;;;;;;;24.92;4.75;;;;;;;;;;4998299;28;20049;-59
2022/01/04 02:25:52;;;;;;;17.58;4.05;;;;;;;;;;4986244;28;20128;-58
2022/01/04 02:28:20;;;;;;;19.35;4.22;;;;;;;;;;5000097;28;20111;-58
2022/01/04 02:30:48;;;;;;;23.92;5.53;;;;;;;;;;5016621;28;20087;-58
2022/01/04 02:33:19;;;;;;;36.85;5.18;;;;;;;;;;4995332;28;20376;-59
2022/01/04 02:35:44;;;;;;;24.95;4.85;;;;;;;;;;5017527;28;20029;-58
2022/01/04 02:38:14;;;;;;;24.88;4.50;;;;;;;;;;5000103;28;20445;-58
2022/01/04 02:40:45;;;;;;;28.65;4.72;;;;;;;;;;5014131;28;20053;-58
2022/01/04 02:43:12;;;;;;;18.63;5.00;;;;;;;;;;4998367;28;20041;-58
2022/01/04 02:45:38;;;;;;;32.63;5.82;;;;;;;;;;4990928;28;20033;-59
2022/01/04 02:48:05;;;;;;;29.55;4.85;;;;;;;;;;4989558;28;20033;-59
2022/01/04 02:50:33;;;;;;;25.48;4.50;;;;;;;;;;4988980;28;20041;-59
2022/01/04 02:53:06;;;;;;;17.15;5.25;;;;;;;;;;5002420;28;20037;-59
2022/01/04 02:55:32;;;;;;;23.17;5.60;;;;;;;;;;5020363;28;20642;-59
2022/01/04 02:58:00;;;;;;;22.98;4.75;;;;;;;;;;5000917;28;20172;-59
2022/01/04 03:00:26;;;;;;;28.58;5.30;;;;;;;;;;5003066;28;20033;-59
2022/01/04 03:02:55;;;;;;;26.92;5.15;;;;;;;;;;5015275;28;20037;-59
2022/01/04 03:05:22;;;;;;;27.33;5.40;;;;;;;;;;5020022;28;20028;-59
2022/01/04 03:07:48;;;;;;;24.58;4.70;;;;;;;;;;5017309;28;20109;-59
2022/01/04 03:10:16;;;;;;;33.17;5.65;;;;;;;;;;5019486;28;20112;-60
2022/01/04 03:12:47;;;;;;;27.92;4.57;;;;;;;;;;4999754;28;20092;-59
2022/01/04 03:15:22;;;;;;;23.80;4.85;;;;;;;;;;5020052;28;20026;-59
2022/01/04 03:17:48;;;;;;;41.10;5.10;;;;;;;;;;5020406;28;20036;-60
2022/01/04 03:20:16;;;;;;;32.22;5.43;;;;;;;;;;5021078;28;20029;-59
2022/01/04 03:22:49;;;;;;;26.58;4.57;;;;;;;;;;5003180;28;20037;-60
2022/01/04 03:25:14;;;;;;;19.40;5.07;;;;;;;;;;5018707;28;20119;-59
2022/01/04 03:27:42;;;;;;;37.17;5.30;;;;;;;;;;4999873;28;20618;-59
2022/01/04 03:30:08;;;;;;;22.50;4.57;;;;;;;;;;4988873;28;20037;-60
2022/01/04 03:32:34;;;;;;;22.15;5.07;;;;;;;;;;5020653;28;20029;-59
2022/01/04 03:35:02;;;;;;;31.70;5.65;;;;;;;;;;4988431;28;20035;-59
2022/01/04 03:37:27;;;;;;;31.20;5.05;;;;;;;;;;4986451;28;20033;-60
2022/01/04 03:39:53;;;;;;;22.27;4.80;;;;;;;;;;5004259;28;20107;-58
2022/01/04 03:42:26;;;;;;;31.83;5.43;;;;;;;;;;5019085;28;20024;-59
2022/01/04 03:44:57;;;;;;;29.15;5.75;;;;;;;;;;4989689;28;20034;-58
2022/01/04 03:47:29;;;;;;;29.05;5.13;;;;;;;;;;5019648;28;20078;-58
2022/01/04 03:49:56;;;;;;;12.65;4.57;;;;;;;;;;5020329;28;20037;-59
2022/01/04 03:52:24;;;;;;;31.85;4.75;;;;;;;;;;5019492;28;20032;-59
2022/01/04 03:54:55;;;;;;;23.13;4.70;;;;;;;;;;5020716;28;20025;-59
2022/01/04 03:57:23;;;;;;;11.02;4.10;;;;;;;;;;5000458;28;20041;-59
2022/01/04 03:59:48;;;;;;;26.65;5.65;;;;;;;;;;5004083;28;20040;-60
2022/01/04 04:02:23;;;;;;;29.40;4.57;;;;;;;;;;5019610;28;20675;-60
2022/01/04 04:04:48;;;;;;;22.63;4.63;;;;;;;;;;5019726;28;20053;-59
2022/01/04 04:07:16;;;;;;;29.55;3.85;;;;;;;;;;4990524;28;20037;-60
2022/01/04 04:09:42;;;;;;;28.75;5.03;;;;;;;;;;5019415;28;20147;-59
2022/01/04 04:12:08;;;;;;;43.38;5.60;;;;;;;;;;5016038;28;20029;-59
2022/01/04 04:14:33;;;;;;;26.45;3.97;;;;;;;;;;5019574;28;20041;-60
2022/01/04 04:17:01;;;;;;;26.10;4.80;;;;;;;;;;5019299;28;20024;-59
2022/01/04 04:19:29;;;;;;;32.97;4.80;;;;;;;;;;5015993;28;20060;-60
2022/01/04 04:21:55;;;;;;;26.50;5.38;;;;;;;;;;4999931;28;20052;-58
2022/01/04 04:24:38;;;;;;;28.00;5.18;;;;;;;;;;5016973;28;20057;-59
2022/01/04 04:27:04;;;;;;;22.27;4.85;;;;;;;;;;5018183;28;20408;-59
2022/01/04 04:29:29;;;;;;;31.98;5.20;;;;;;;;;;5004080;28;20044;-59
2022/01/04 04:31:57;;;;;;;21.98;5.10;;;;;;;;;;5016066;28;20037;-59
2022/01/04 04:34:23;;;;;;;26.65;5.32;;;;;;;;;;5003165;28;20588;-60
2022/01/04 04:36:51;;;;;;;31.35;5.57;;;;;;;;;;5000233;28;20052;-59
2022/01/04 04:39:18;;;;;;;18.60;5.53;;;;;;;;;;5020009;28;20035;-59
2022/01/04 04:41:44;;;;;;;28.73;6.13;;;;;;;;;;5004936;28;20045;-60
2022/01/04 04:44:09;;;;;;;38.92;6.88;;;;;;;;;;4990966;28;20083;-60
2022/01/04 04:46:34;;;;;;;43.83;6.20;;;;;;;;;;5002199;28;20048;-59
2022/01/04 04:49:01;;;;;;;30.20;5.80;;;;;;;;;;5004013;28;20441;-60
2022/01/04 04:51:31;;;;;;;27.52;4.88;;;;;;;;;;4967230;28;20151;-60
2022/01/04 04:53:59;;;;;;;32.95;5.38;;;;;;;;;;5018880;28;20032;-60
2022/01/04 04:56:27;;;;;;;31.65;6.65;;;;;;;;;;5017473;28;20060;-59
2022/01/04 04:59:29;;;;;;;30.17;5.82;;;;;;;;;;5000991;28;20037;-58
2022/01/04 05:01:57;;;;;;;23.00;5.53;;;;;;;;;;5017960;28;20097;-59
2022/01/04 05:04:28;;;;;;;24.15;5.10;;;;;;;;;;5004794;28;20017;-59
2022/01/04 05:06:56;;;;;;;32.10;5.15;;;;;;;;;;4997869;28;20041;-59
2022/01/04 05:09:22;;;;;;;22.35;6.13;;;;;;;;;;5017925;28;20059;-59
2022/01/04 05:11:52;;;;;;;27.63;6.40;;;;;;;;;;4990583;28;20061;-59
2022/01/04 05:14:22;;;;;;;31.90;6.55;;;;;;;;;;5004512;28;20032;-59
2022/01/04 05:20:26;;;;;;;27.67;5.97;;;;;;;;;;5019077;28;20048;-59
2022/01/04 05:22:54;;;;;;;30.38;6.85;;;;;;;;;;4999253;28;20036;-58
2022/01/04 05:25:22;;;;;;;40.05;7.10;;;;;;;;;;5018904;28;20025;-58
2022/01/04 05:28:12;;;;;;;26.27;5.85;;;;;;;;;;4998985;28;20044;-59
2022/01/04 05:30:40;;;;;;;24.67;5.20;;;;;;;;;;4996767;28;20078;-60
2022/01/04 05:33:07;;;;;;;28.27;7.22;;;;;;;;;;5016454;28;20029;-60
2022/01/04 05:35:33;;;;;;;35.92;6.35;;;;;;;;;;4999499;28;20055;-60
2022/01/04 05:38:01;;;;;;;36.55;5.82;;;;;;;;;;5018408;28;20366;-61
2022/01/04 05:40:30;;;;;;;33.03;6.38;;;;;;;;;;5017653;28;20144;-59
2022/01/04 05:43:00;;;;;;;28.52;6.68;;;;;;;;;;5019081;28;20033;-60
2022/01/04 05:45:29;;;;;;;26.90;6.43;;;;;;;;;;5017972;28;20045;-59
2022/01/04 05:47:57;;;;;;;31.05;6.63;;;;;;;;;;4999728;28;20040;-58
2022/01/04 05:50:25;;;;;;;22.70;6.07;;;;;;;;;;4986906;28;20588;-61
2022/01/04 05:52:53;;;;;;;24.15;6.88;;;;;;;;;;5000735;28;20036;-59
2022/01/04 05:55:21;;;;;;;31.33;5.97;;;;;;;;;;4989216;28;20028;-59
2022/01/04 05:57:49;;;;;;;31.95;7.70;;;;;;;;;;5019459;28;20096;-59
2022/01/04 06:00:17;;;;;;;34.65;6.57;;;;;;;;;;4980477;28;20072;-59
2022/01/04 06:02:42;;;;;;;33.63;6.88;;;;;;;;;;5015874;28;20033;-58
2022/01/04 06:05:11;;;;;;;26.77;6.20;;;;;;;;;;5015869;28;20089;-59
2022/01/04 06:07:40;;;;;;;40.50;8.15;;;;;;;;;;5016742;28;20029;-60
2022/01/04 06:16:34;;;;;;;25.70;6.57;;;;;;;;;;4997732;28;20172;-59
2022/01/04 06:19:01;;;;;;;28.98;7.55;;;;;;;;;;4984527;28;20034;-59
2022/01/04 06:21:27;;;;;;;20.63;6.53;;;;;;;;;;4983389;28;20080;-59
2022/01/04 06:23:53;;;;;;;36.30;7.22;;;;;;;;;;4965370;28;20026;-59
2022/01/04 06:26:21;;;;;;;26.55;6.22;;;;;;;;;;4982649;28;20037;-58
2022/01/04 06:28:49;;;;;;;21.45;6.38;;;;;;;;;;4998730;28;20032;-58
2022/01/04 06:31:17;;;;;;;36.38;6.57;;;;;;;;;;5001627;28;20033;-58
2022/01/04 06:33:50;;;;;;;24.80;6.75;;;;;;;;;;4989751;28;20022;-60
2022/01/04 06:36:18;;;;;;;33.35;6.35;;;;;;;;;;4999941;28;20073;-58
2022/01/04 06:38:43;;;;;;;33.28;5.85;;;;;;;;;;4988895;28;20053;-58
2022/01/04 06:41:11;;;;;;;35.78;6.35;;;;;;;;;;4986064;28;20048;-59
2022/01/04 06:43:36;;;;;;;24.63;5.43;;;;;;;;;;4982146;28;20617;-59
2022/01/04 06:46:08;;;;;;;26.58;4.53;;;;;;;;;;4985467;28;20428;-59
2022/01/04 06:48:33;;;;;;;29.42;5.35;;;;;;;;;;4984869;28;20034;-59
2022/01/04 06:51:01;;;;;;;39.08;6.10;;;;;;;;;;4998347;28;22050;-59
2022/01/04 06:53:26;;;;;;;43.47;4.60;;;;;;;;;;4999261;28;20068;-59
2022/01/04 06:55:54;;;;;;;38.92;5.28;;;;;;;;;;4985699;28;20052;-59
2022/01/04 06:58:20;;;;;;;27.65;4.82;;;;;;;;;;4999734;28;20490;-58
2022/01/04 07:00:45;;;;;;;26.77;4.32;;;;;;;;;;5000262;28;20125;-58
2022/01/04 07:03:17;;;;;;;29.05;4.28;;;;;;;;;;4981438;28;20073;-58
2022/01/04 07:05:45;;;;;;;26.45;4.97;;;;;;;;;;5000126;28;20042;-58
2022/01/04 07:08:17;;;;;;;19.40;3.88;;;;;;;;;;4999385;28;20025;-59
2022/01/04 07:10:48;;;;;;;26.63;4.72;;;;;;;;;;5001341;28;20021;-59
2022/01/04 07:13:13;;;;;;;12.15;4.43;;;;;;;;;;4999334;28;20067;-59
2022/01/04 07:15:41;;;;;;;11.65;3.53;;;;;;;;;;5018986;28;21961;-59
2022/01/04 07:18:09;;;;;;;24.70;3.40;;;;;;;;;;5002892;28;20045;-59
2022/01/04 07:20:35;;;;;;;23.83;3.88;;;;;;;;;;4999074;28;20054;-59
2022/01/04 07:23:01;;;;;;;25.17;3.03;;;;;;;;;;4998757;28;20040;-59
2022/01/04 07:25:26;;;;;;;21.38;3.50;;;;;;;;;;4996543;28;20444;-59
2022/01/04 07:27:54;;;;;;;30.77;4.63;;;;;;;;;;5019397;28;20029;-59
2022/01/04 07:30:22;;;;;;;27.98;4.38;;;;;;;;;;5020448;28;20057;-59
2022/01/04 07:32:47;;;;;;;22.50;3.80;;;;;;;;;;5000795;28;20091;-58
2022/01/04 07:35:13;;;;;;;15.57;3.97;;;;;;;;;;4991033;28;20033;-59
2022/01/04 07:37:38;;;;;;;15.48;3.88;;;;;;;;;;5017889;28;20689;-59
2022/01/04 07:40:04;;;;;;;23.33;4.47;;;;;;;;;;5002878;28;20156;-59
2022/01/04 07:42:34;;;;;;;21.17;4.30;;;;;;;;;;5019231;28;20029;-59
2022/01/04 07:45:07;;;;;;;29.20;4.25;;;;;;;;;;5000535;28;20182;-59
2022/01/04 07:47:37;;;;;;;24.13;4.13;;;;;;;;;;5018721;28;20120;-58
2022/01/04 07:50:05;;;;;;;9.65;3.65;;;;;;;;;;5004237;28;20038;-57
2022/01/04 07:52:33;;;;;;;10.75;2.97;;;;;;;;;;5018453;28;20433;-58
2022/01/04 07:55:01;;;;;;;27.13;3.67;;;;;;;;;;5005936;28;20670;-57
2022/01/04 07:57:31;;;;;;;24.83;3.10;;;;;;;;;;5020328;28;20029;-59
2022/01/04 07:59:59;;;;;;;25.15;4.28;;;;;;;;;;5017205;28;20127;-59
2022/01/04 08:02:32;;;;;;;18.15;3.67;;;;;;;;;;5021646;28;21155;-58
2022/01/04 08:05:02;;;;;;;14.55;3.47;;;;;;;;;;5006420;28;20044;-58
2022/01/04 08:07:32;;;;;;;22.63;3.80;;;;;;;;;;5002986;28;20393;-58
2022/01/04 08:10:00;;;;;;;12.10;4.13;;;;;;;;;;5008452;28;20639;-58
2022/01/04 08:12:26;;;;;;;19.83;3.60;;;;;;;;;;5003847;28;20419;-58
2022/01/04 08:14:51;;;;;;;17.10;3.60;;;;;;;;;;5018577;28;20040;-59
2022/01/04 08:17:19;;;;;;;13.57;3.33;;;;;;;;;;5015906;28;20028;-59
2022/01/04 08:19:52;;;;;;;17.00;3.13;;;;;;;;;;5020422;28;20033;-59
2022/01/04 08:22:20;;;;;;;25.23;3.90;;;;;;;;;;4985861;28;20176;-58
2022/01/04 08:24:51;;;;;;;22.08;3.85;;;;;;;;;;5004003;28;20025;-58
2022/01/04 08:27:18;;;;;;;20.85;3.72;;;;;;;;;;4990204;28;20026;-58
2022/01/04 08:29:46;;;;;;;17.75;3.17;;;;;;;;;;5000401;28;20083;-58
2022/01/04 08:32:15;;;;;;;16.08;3.00;;;;;;;;;;5016040;28;20029;-59
2022/01/04 08:34:40;;;;;;;14.75;3.05;;;;;;;;;;4987949;28;20042;-58
2022/01/04 08:37:06;;;;;;;21.85;3.88;;;;;;;;;;4985981;28;20036;-58
2022/01/04 08:39:32;;;;;;;24.15;3.67;;;;;;;;;;5015741;28;20071;-58
2022/01/04 08:42:01;;;;;;;33.60;4.28;;;;;;;;;;4998995;28;21783;-59
2022/01/04 08:44:30;;;;;;;15.07;3.85;;;;;;;;;;5006081;28;20040;-59
2022/01/04 08:46:55;;;;;;;9.90;3.13;;;;;;;;;;4996950;28;20040;-59
2022/01/04 08:49:25;;;;;;;18.40;2.63;;;;;;;;;;5002893;28;20155;-59
2022/01/04 08:51:55;;;;;;;9.68;2.17;;;;;;;;;;5000105;28;20037;-57
2022/01/04 08:54:21;;;;;;;12.35;1.85;;;;;;;;;;5004431;28;20041;-59
2022/01/04 08:56:49;;;;;;;5.63;0.90;;;;;;;;;;4983905;28;20033;-57
2022/01/04 08:59:20;;;;;;;4.45;0.80;;;;;;;;;;5000018;28;20133;-58
2022/01/04 09:01:45;;;;;;;0.85;0.40;;;;;;;;;;4990322;28;20077;-59
2022/01/04 09:04:13;;;;;;;5.28;0.50;;;;;;;;;;5000896;28;21002;-59
2022/01/04 09:06:43;;;;;;;11.57;1.58;;;;;;;;;;5012843;28;20971;-59
2022/01/04 09:09:11;;;;;;;6.50;0.60;;;;;;;;;;5015580;28;20033;-57
2022/01/04 09:11:41;;;;;;;2.45;0.52;;;;;;;;;;5002224;28;20038;-59
2022/01/04 09:19:59;;;;;;;10.05;0.85;;;;;;;;;;5016827;28;20037;-58
2022/01/04 09:22:27;;;;;;;5.88;0.50;;;;;;;;;;4987700;28;20036;-59
2022/01/04 09:24:55;;;;;;;6.25;0.73;;;;;;;;;;5016996;28;20132;-58
2022/01/04 09:27:20;;;;;;;4.50;0.68;;;;;;;;;;5015912;28;20166;-58
2022/01/04 09:29:51;;;;;;;4.82;0.88;;;;;;;;;;5016457;28;20025;-58
2022/01/04 09:32:19;;;;;;;4.03;0.50;;;;;;;;;;5006806;28;20029;-59
2022/01/04 09:34:49;;;;;;;6.97;1.08;;;;;;;;;;5003462;28;20033;-57
2022/01/04 09:37:17;;;;;;;0.90;0.32;;;;;;;;;;5000013;28;20069;-58
2022/01/04 09:39:48;;;;;;;3.60;0.40;;;;;;;;;;5003630;28;20034;-58
2022/01/04 09:42:18;;;;;;;4.63;0.35;;;;;;;;;;4989841;28;20091;-58
2022/01/04 09:44:44;;;;;;;3.13;0.68;;;;;;;;;;5013918;28;20052;-58
2022/01/04 09:47:15;;;;;;;9.13;0.90;;;;;;;;;;4999494;28;20033;-59
2022/01/04 09:49:43;;;;;;;0.93;0.40;;;;;;;;;;5017308;28;20080;-58
2022/01/04 09:52:15;;;;;;;11.88;0.80;;;;;;;;;;4983337;28;20026;-59
2022/01/04 09:54:43;;;;;;;4.18;0.88;;;;;;;;;;5018675;28;20133;-58
2022/01/04 09:57:13;;;;;;;11.80;0.90;;;;;;;;;;4995633;28;20390;-59
2022/01/04 09:59:39;;;;;;;7.45;1.10;;;;;;;;;;4995043;28;20034;-58
2022/01/04 10:02:15;;;;;;;3.58;0.20;;;;;;;;;;5016013;28;20041;-59
2022/01/04 10:04:40;;;;;;;0.25;0.25;;;;;;;;;;5016347;28;21517;-59
2022/01/04 10:07:11;;;;;;;9.63;0.55;;;;;;;;;;4999275;28;20037;-58
2022/01/04 10:09:45;;;;;;;13.80;0.60;;;;;;;;;;5004955;28;20040;-58
2022/01/04 10:12:17;;;;;;;10.15;0.40;;;;;;;;;;4998886;28;20952;-58
2022/01/04 10:14:47;;;;;;;3.30;0.43;;;;;;;;;;5016816;28;20199;-59
2022/01/04 10:17:22;;;;;;;3.70;0.32;;;;;;;;;;4998308;28;20029;-59
2022/01/04 10:19:51;;;;;;;1.15;0.30;;;;;;;;;;4999723;28;20046;-58
2022/01/04 10:22:25;;;;;;;1.88;0.43;;;;;;;;;;4973029;28;20029;-59
2022/01/04 10:25:04;;;;;;;6.07;0.65;;;;;;;;;;5016639;28;20029;-59
2022/01/04 10:27:33;;;;;;;8.32;0.80;;;;;;;;;;5003267;28;20532;-58
2022/01/04 10:30:23;;;;;;;1.65;0.25;;;;;;;;;;5004082;28;20862;-59
2022/01/04 10:32:52;;;;;;;4.50;0.68;;;;;;;;;;4990362;28;20038;-59
2022/01/04 10:35:25;;;;;;;1.05;0.30;;;;;;;;;;4998790;28;20044;-59
2022/01/04 10:37:50;;;;;;;6.85;0.30;;;;;;;;;;5017944;28;20037;-59
2022/01/04 10:40:18;;;;;;;5.53;0.40;;;;;;;;;;5016359;28;20024;-58
2022/01/04 10:42:44;;;;;;;0.90;0.28;;;;;;;;;;5015806;28;22161;-60
2022/01/04 10:45:39;;;;;;;3.38;0.20;;;;;;;;;;5016800;28;20035;-58
2022/01/04 10:48:14;;;;;;;5.07;0.38;;;;;;;;;;5005774;28;20053;-59
2022/01/04 10:50:41;;;;;;;0.57;0.20;;;;;;;;;;4999768;28;20037;-58
2022/01/04 10:53:13;;;;;;;0.50;0.20;;;;;;;;;;4997221;28;20049;-58
2022/01/04 10:55:41;;;;;;;1.15;0.10;;;;;;;;;;5015973;28;20033;-58
2022/01/04 10:58:17;;;;;;;0.17;0.10;;;;;;;;;;4998958;28;21706;-58
2022/01/04 11:00:48;;;;;;;4.85;0.55;;;;;;;;;;5013100;28;20037;-59
2022/01/04 11:03:24;;;;;;;5.35;0.40;;;;;;;;;;5015745;28;20125;-58
2022/01/04 11:06:00;;;;;;;2.00;0.22;;;;;;;;;;5006774;28;20132;-59
2022/01/04 11:08:25;;;;;;;2.83;0.20;;;;;;;;;;5019017;28;20112;-59
2022/01/04 11:10:53;;;;;;;2.17;0.30;;;;;;;;;;4999417;28;20037;-59
2022/01/04 11:13:22;;;;;;;2.65;0.40;;;;;;;;;;5003270;28;20073;-59
2022/01/04 11:15:50;;;;;;;8.45;0.95;;;;;;;;;;4971090;28;20060;-58
2022/01/04 11:18:15;;;;;;;3.50;0.82;;;;;;;;;;4985640;28;20037;-59
2022/01/04 11:20:44;;;;;;;5.57;1.00;;;;;;;;;;4965447;28;20028;-58
2022/01/04 11:23:13;;;;;;;4.82;0.73;;;;;;;;;;5006871;28;20036;-58
2022/01/04 11:25:42;;;;;;;1.60;0.50;;;;;;;;;;5007604;28;20116;-60
2022/01/04 11:28:09;;;;;;;2.58;0.50;;;;;;;;;;5006567;28;20599;-60
2022/01/04 11:30:50;;;;;;;4.45;0.70;;;;;;;;;;5006337;28;20049;-59
2022/01/04 11:33:38;;;;;;;4.28;0.95;;;;;;;;;;4969175;28;20049;-57
2022/01/04 11:36:07;;;;;;;4.18;0.40;;;;;;;;;;4989044;28;20041;-59
2022/01/04 11:38:38;;;;;;;5.43;0.50;;;;;;;;;;4983752;28;20917;-58
2022/01/04 11:41:06;;;;;;;3.83;0.73;;;;;;;;;;5002908;28;20406;-58
2022/01/04 11:43:35;;;;;;;5.45;0.45;;;;;;;;;;5005546;28;20136;-59
2022/01/04 11:46:04;;;;;;;1.48;0.17;;;;;;;;;;4985517;28;20065;-58
2022/01/04 11:48:37;;;;;;;1.90;0.43;;;;;;;;;;5005566;28;20043;-58
2022/01/04 11:51:04;;;;;;;5.50;0.52;;;;;;;;;;5005020;28;20044;-58
2022/01/04 11:53:34;;;;;;;5.60;0.60;;;;;;;;;;5003563;28;20029;-58
2022/01/04 11:56:05;;;;;;;5.00;0.85;;;;;;;;;;5002416;28;20046;-59
2022/01/04 11:58:50;;;;;;;4.32;0.63;;;;;;;;;;5005260;28;20076;-58
2022/01/04 12:01:17;;;;;;;12.73;0.68;;;;;;;;;;5003826;28;20040;-59
2022/01/04 12:03:47;;;;;;;1.83;0.50;;;;;;;;;;4972049;28;20038;-58
2022/01/04 12:06:17;;;;;;;2.00;0.77;;;;;;;;;;4971947;28;20029;-59
2022/01/04 12:08:52;;;;;;;4.07;0.45;;;;;;;;;;5001314;28;20533;-58
2022/01/04 12:11:21;;;;;;;3.35;0.63;;;;;;;;;;5000165;28;20037;-59
2022/01/04 12:13:51;;;;;;;2.45;0.77;;;;;;;;;;5002819;28;20575;-58
2022/01/04 12:16:35;;;;;;;2.95;0.43;;;;;;;;;;5002062;28;20515;-58
2022/01/04 12:19:07;;;;;;;11.82;0.68;;;;;;;;;;4997823;28;20572;-60
2022/01/04 12:21:43;;;;;;;2.60;0.68;;;;;;;;;;5018471;28;20033;-58
2022/01/04 12:24:14;;;;;;;4.88;1.40;;;;;;;;;;4988437;28;20037;-59
2022/01/04 12:26:40;;;;;;;3.70;1.13;;;;;;;;;;4994971;28;20042;-58
2022/01/04 12:29:06;;;;;;;3.42;0.70;;;;;;;;;;5015863;28;20032;-58
2022/01/04 12:31:31;;;;;;;11.02;1.10;;;;;;;;;;4987264;28;20035;-58
2022/01/04 12:33:59;;;;;;;4.63;0.68;;;;;;;;;;4999554;28;22076;-58
2022/01/04 12:36:25;;;;;;;9.45;0.80;;;;;;;;;;5017635;28;20040;-59
2022/01/04 12:38:53;;;;;;;14.55;1.23;;;;;;;;;;4979852;28;20033;-59
2022/01/04 12:41:22;;;;;;;1.73;0.65;;;;;;;;;;5016055;28;20067;-58
2022/01/04 12:43:50;;;;;;;4.53;1.05;;;;;;;;;;5018059;28;20048;-58
2022/01/04 12:46:28;;;;;;;6.50;0.98;;;;;;;;;;5001606;28;20346;-59
2022/01/04 12:49:01;;;;;;;8.00;1.17;;;;;;;;;;5019367;28;20029;-60
2022/01/04 12:51:45;;;;;;;6.25;0.88;;;;;;;;;;5016676;28;20068;-59
2022/01/04 12:54:14;;;;;;;1.33;0.40;;;;;;;;;;5017210;28;20435;-59
2022/01/04 12:57:04;;;;;;;6.97;0.90;;;;;;;;;;5018623;28;20029;-63
2022/01/04 12:59:42;;;;;;;6.72;0.77;;;;;;;;;;5016025;28;20064;-59
2022/01/04 13:02:07;;;;;;;14.15;1.05;;;;;;;;;;5019342;28;20041;-59
2022/01/04 13:04:35;;;;;;;7.75;0.77;;;;;;;;;;4998472;28;20025;-58
2022/01/04 13:07:03;;;;;;;6.57;0.47;;;;;;;;;;4998276;28;20029;-59
2022/01/04 13:09:31;;;;;;;5.38;0.77;;;;;;;;;;5000206;28;20081;-59
2022/01/04 13:12:00;;;;;;;6.65;1.23;;;;;;;;;;5017889;28;20080;-60
2022/01/04 13:14:32;;;;;;;4.32;0.98;;;;;;;;;;5018013;28;20033;-59
2022/01/04 13:17:02;;;;;;;7.70;0.85;;;;;;;;;;5016150;28;20033;-60
2022/01/04 13:19:34;;;;;;;21.63;0.88;;;;;;;;;;4998997;28;20037;-60
2022/01/04 13:22:03;;;;;;;5.25;0.63;;;;;;;;;;5001226;28;20029;-59
2022/01/04 13:24:31;;;;;;;4.07;0.63;;;;;;;;;;4996610;28;21009;-59
2022/01/04 13:27:13;;;;;;;3.25;0.98;;;;;;;;;;5001976;28;20045;-59
2022/01/04 13:29:39;;;;;;;11.43;1.33;;;;;;;;;;5015760;28;20536;-59
2022/01/04 13:32:05;;;;;;;8.50;0.98;;;;;;;;;;5018563;28;20055;-59
2022/01/04 13:34:35;;;;;;;4.65;0.90;;;;;;;;;;4986958;28;20924;-59
2022/01/04 13:37:03;;;;;;;1.00;0.40;;;;;;;;;;4998434;28;20100;-60
2022/01/04 13:39:32;;;;;;;3.42;0.65;;;;;;;;;;4998560;28;20024;-59
2022/01/04 13:41:57;;;;;;;5.18;0.50;;;;;;;;;;5017148;28;20147;-60
2022/01/04 13:44:25;;;;;;;7.57;0.98;;;;;;;;;;4996620;28;20157;-60
2022/01/04 13:46:58;;;;;;;3.88;0.77;;;;;;;;;;5015996;28;20143;-58
2022/01/04 13:49:27;;;;;;;7.53;1.08;;;;;;;;;;5011506;28;20021;-60
2022/01/04 13:51:58;;;;;;;4.15;0.63;;;;;;;;;;5000872;28;20124;-60
2022/01/04 13:54:30;;;;;;;5.68;0.85;;;;;;;;;;5039236;28;20032;-59
2022/01/04 13:57:09;;;;;;;8.18;0.93;;;;;;;;;;5027334;28;20025;-59
2022/01/04 13:59:39;;;;;;;3.05;0.82;;;;;;;;;;5028060;28;20033;-59
2022/01/04 14:02:22;;;;;;;5.00;0.65;;;;;;;;;;5027380;28;20037;-59
2022/01/04 14:04:50;;;;;;;8.30;0.93;;;;;;;;;;5007303;28;20201;-59
2022/01/04 14:07:17;;;;;;;2.83;0.90;;;;;;;;;;5000115;28;20025;-59
2022/01/04 14:09:43;;;;;;;4.57;1.42;;;;;;;;;;4986699;28;20044;-59
2022/01/04 14:12:17;;;;;;;4.38;1.10;;;;;;;;;;5024733;28;20405;-59
2022/01/04 14:14:46;;;;;;;10.07;0.93;;;;;;;;;;5024016;28;20029;-60
2022/01/04 14:17:15;;;;;;;8.35;1.00;;;;;;;;;;5009278;28;20041;-59
2022/01/04 14:19:46;;;;;;;4.18;0.82;;;;;;;;;;5021966;28;20040;-60
2022/01/04 14:22:16;;;;;;;8.25;1.35;;;;;;;;;;4997077;28;20029;-60
2022/01/04 14:24:43;;;;;;;3.08;0.65;;;;;;;;;;5005745;28;20029;-60
2022/01/04 14:27:11;;;;;;;2.28;0.60;;;;;;;;;;5026004;28;20039;-61
2022/01/04 14:29:40;;;;;;;10.68;1.55;;;;;;;;;;4988486;28;20028;-60
2022/01/04 14:32:10;;;;;;;2.78;0.65;;;;;;;;;;5014890;28;20136;-59
2022/01/04 14:34:36;;;;;;;6.30;0.57;;;;;;;;;;5015606;28;20143;-59
2022/01/04 14:37:01;;;;;;;4.78;0.65;;;;;;;;;;5011911;28;20090;-60
2022/01/04 14:39:29;;;;;;;1.98;0.70;;;;;;;;;;4994978;28;20040;-59
2022/01/04 14:41:58;;;;;;;2.13;0.60;;;;;;;;;;5002752;28;20037;-59
2022/01/04 14:44:24;;;;;;;4.60;0.80;;;;;;;;;;4996952;28;20093;-59
2022/01/04 14:46:52;;;;;;;4.05;0.88;;;;;;;;;;4976152;28;20033;-59
2022/01/04 14:49:20;;;;;;;6.13;0.63;;;;;;;;;;5025358;28;20116;-59
2022/01/04 14:51:51;;;;;;;8.15;1.05;;;;;;;;;;5007960;28;20283;-60
2022/01/04 14:54:16;;;;;;;3.10;0.40;;;;;;;;;;5026520;28;20071;-59
2022/01/04 14:56:42;;;;;;;5.30;0.55;;;;;;;;;;5027845;28;20364;-59
2022/01/04 14:59:13;;;;;;;5.30;1.15;;;;;;;;;;5001351;28;20041;-60
2022/01/04 15:01:39;;;;;;;1.77;0.68;;;;;;;;;;4983907;28;20664;-60
2022/01/04 15:04:08;;;;;;;10.93;0.77;;;;;;;;;;5008737;28;20135;-59
2022/01/04 15:06:34;;;;;;;9.63;1.08;;;;;;;;;;5022996;28;20029;-60